createdAt,value
2023-05-03T00:01:21.917Z,5.85
2023-05-03T00:03:52.645Z,6.22
2023-05-03T00:06:19.936Z,5.63
2023-05-03T00:08:46.609Z,4.63
2023-05-03T00:11:13.397Z,6.05
2023-05-03T00:13:40.129Z,4.78
2023-05-03T00:16:06.910Z,5.18
2023-05-03T00:18:33.576Z,4.93
2023-05-03T00:21:00.245Z,8.45
2023-05-03T00:23:28.365Z,5.45
2023-05-03T00:25:58.794Z,5.40
2023-05-03T00:28:26.279Z,4.30
2023-05-03T00:30:53.299Z,5.07
2023-05-03T00:33:20.113Z,5.05
2023-05-03T00:35:46.762Z,6.35
2023-05-03T00:38:15.458Z,4.90
2023-05-03T00:40:42.154Z,4.65
2023-05-03T00:43:12.230Z,4.43
2023-05-03T00:45:38.874Z,6.40
2023-05-03T00:48:06.381Z,5.43
2023-05-03T00:50:33.248Z,5.38
2023-05-03T00:53:00.340Z,5.85
2023-05-03T00:55:29.613Z,4.60
2023-05-03T00:57:56.228Z,5.70
2023-05-03T01:00:24.129Z,9.25
2023-05-03T01:02:50.900Z,7.65
2023-05-03T01:05:17.876Z,4.90
2023-05-03T01:08:11.520Z,4.82
2023-05-03T01:10:38.071Z,4.65
2023-05-03T01:13:23.414Z,5.43
2023-05-03T01:16:00.089Z,5.13
2023-05-03T01:18:32.438Z,6.90
2023-05-03T01:21:01.479Z,6.07
2023-05-03T01:23:33.842Z,5.60
2023-05-03T01:26:01.139Z,5.47
2023-05-03T01:28:27.822Z,4.90
2023-05-03T01:30:56.938Z,5.10
2023-05-03T01:33:48.783Z,4.72
2023-05-03T01:36:26.945Z,5.80
2023-05-03T01:38:54.460Z,5.03
2023-05-03T01:41:23.481Z,6.40
2023-05-03T01:43:51.858Z,4.57
2023-05-03T01:46:18.509Z,5.40
2023-05-03T01:48:45.334Z,5.20
2023-05-03T01:51:12.012Z,4.88
2023-05-03T01:53:38.641Z,5.43
2023-05-03T01:56:05.677Z,5.50
2023-05-03T01:58:32.265Z,4.68
2023-05-03T02:00:58.868Z,5.43
2023-05-03T02:03:25.489Z,4.40
2023-05-03T02:05:52.088Z,5.38
2023-05-03T02:08:18.672Z,4.53
2023-05-03T02:10:45.400Z,5.50
2023-05-03T02:13:12.039Z,6.20
2023-05-03T02:15:38.696Z,5.03
2023-05-03T02:18:05.592Z,5.35
2023-05-03T02:20:36.507Z,5.30
2023-05-03T02:23:04.136Z,5.88
2023-05-03T02:25:30.929Z,6.30
2023-05-03T02:27:57.547Z,5.45
2023-05-03T02:30:24.219Z,6.78
2023-05-03T02:32:50.897Z,5.82
2023-05-03T02:35:17.633Z,5.57
2023-05-03T02:37:44.232Z,4.72
2023-05-03T02:40:11.236Z,6.13
2023-05-03T02:42:38.057Z,5.18
2023-05-03T02:45:05.078Z,5.43
2023-05-03T02:47:31.762Z,5.32
2023-05-03T02:49:58.401Z,5.25
2023-05-03T02:52:25.065Z,5.47
2023-05-03T02:54:51.770Z,7.07
2023-05-03T02:57:18.402Z,4.55
2023-05-03T02:59:45.013Z,5.13
2023-05-03T03:02:11.632Z,5.63
2023-05-03T03:04:38.264Z,5.35
2023-05-03T03:07:05.336Z,6.30
2023-05-03T03:09:32.005Z,6.40
2023-05-03T03:12:03.090Z,5.45
2023-05-03T03:14:30.384Z,5.32
2023-05-03T03:17:03.420Z,7.18
2023-05-03T03:19:30.155Z,4.32
2023-05-03T03:21:56.820Z,5.32
2023-05-03T03:24:23.471Z,5.15
2023-05-03T03:26:50.049Z,5.50
2023-05-03T03:29:16.832Z,4.97
2023-05-03T03:31:43.641Z,5.00
2023-05-03T03:34:12.288Z,5.95
2023-05-03T03:36:39.432Z,4.97
2023-05-03T03:39:07.376Z,5.00
2023-05-03T03:41:34.107Z,5.80
2023-05-03T03:44:00.713Z,5.57
2023-05-03T03:46:27.446Z,5.68
2023-05-03T03:48:54.100Z,5.57
2023-05-03T03:51:20.738Z,4.40
2023-05-03T03:53:47.323Z,6.82
2023-05-03T03:56:14.000Z,5.13
2023-05-03T03:58:40.731Z,6.40
2023-05-03T04:01:07.460Z,5.65
2023-05-03T04:03:34.217Z,7.63
2023-05-03T04:06:01.013Z,7.45
2023-05-03T04:08:27.719Z,8.02
2023-05-03T04:10:54.323Z,7.47
2023-05-03T04:13:21.000Z,6.90
2023-05-03T04:15:47.579Z,6.18
2023-05-03T04:18:14.239Z,5.90
2023-05-03T04:20:40.910Z,6.32
2023-05-03T04:23:07.507Z,6.07
2023-05-03T04:25:34.254Z,6.35
2023-05-03T04:28:00.854Z,6.43
2023-05-03T04:30:27.484Z,8.70
2023-05-03T04:32:55.548Z,6.43
2023-05-03T04:35:22.304Z,5.32
2023-05-03T04:37:48.964Z,4.60
2023-05-03T04:40:17.235Z,5.72
2023-05-03T04:42:43.932Z,5.63
2023-05-03T04:45:11.023Z,5.47
2023-05-03T04:47:37.734Z,5.38
2023-05-03T04:50:04.961Z,5.93
2023-05-03T04:52:32.000Z,8.52
2023-05-03T04:54:58.646Z,6.65
2023-05-03T04:57:25.669Z,5.38
2023-05-03T04:59:54.129Z,4.70
2023-05-03T05:02:21.732Z,5.25
2023-05-03T05:04:48.557Z,6.13
2023-05-03T05:07:15.555Z,6.15
2023-05-03T05:09:42.153Z,6.15
2023-05-03T05:12:09.012Z,6.15
2023-05-03T05:14:35.797Z,6.65
2023-05-03T05:17:02.531Z,5.13
2023-05-03T05:19:29.213Z,5.75
2023-05-03T05:21:56.310Z,7.30
2023-05-03T05:24:22.953Z,5.38
2023-05-03T05:26:49.900Z,6.95
2023-05-03T05:29:16.528Z,5.30
2023-05-03T05:31:43.157Z,3.95
2023-05-03T05:34:09.847Z,4.57
2023-05-03T05:36:36.657Z,4.75
2023-05-03T05:39:03.815Z,4.93
2023-05-03T05:41:30.426Z,4.60
2023-05-03T05:43:58.634Z,5.00
2023-05-03T05:46:25.992Z,3.83
2023-05-03T05:48:52.692Z,4.00
2023-05-03T05:51:20.210Z,4.22
2023-05-03T05:53:46.877Z,5.10
2023-05-03T05:56:13.562Z,4.40
2023-05-03T05:58:40.415Z,3.05
2023-05-03T06:01:08.541Z,5.45
2023-05-03T06:03:35.162Z,3.42
2023-05-03T06:06:01.847Z,4.00
2023-05-03T06:08:28.539Z,5.85
2023-05-03T06:10:55.352Z,4.57
2023-05-03T06:13:22.652Z,4.53
2023-05-03T06:15:49.283Z,4.68
2023-05-03T06:18:16.041Z,3.78
2023-05-03T06:20:42.836Z,6.18
2023-05-03T06:23:09.510Z,6.00
2023-05-03T06:25:39.156Z,5.78
2023-05-03T06:28:05.766Z,5.07
2023-05-03T06:30:32.528Z,4.93
2023-05-03T06:32:59.155Z,6.47
2023-05-03T06:35:26.564Z,7.13
2023-05-03T06:37:53.186Z,5.50
2023-05-03T06:40:19.807Z,11.80
2023-05-03T06:42:46.515Z,10.05
2023-05-03T06:45:13.209Z,7.35
2023-05-03T06:47:42.711Z,5.75
2023-05-03T06:50:10.707Z,19.73
2023-05-03T06:52:37.500Z,5.18
2023-05-03T06:55:04.988Z,5.50
2023-05-03T06:57:31.996Z,5.13
2023-05-03T06:59:58.893Z,4.47
2023-05-03T07:02:26.877Z,3.50
2023-05-03T07:04:53.854Z,4.72
2023-05-03T07:07:20.627Z,5.03
2023-05-03T07:09:47.458Z,5.70
2023-05-03T07:12:14.064Z,5.85
2023-05-03T07:14:40.790Z,5.07
2023-05-03T07:17:07.572Z,5.32
2023-05-03T07:19:34.350Z,6.68
2023-05-03T07:22:03.175Z,6.50
2023-05-03T07:24:29.895Z,6.57
2023-05-03T07:26:58.130Z,8.23
2023-05-03T07:29:24.768Z,7.78
2023-05-03T07:31:53.468Z,7.35
2023-05-03T07:34:20.948Z,8.20
2023-05-03T07:36:47.566Z,8.65
2023-05-03T07:39:14.176Z,10.38
2023-05-03T07:41:40.781Z,10.80
2023-05-03T07:44:07.842Z,14.82
2023-05-03T07:46:35.424Z,12.25
2023-05-03T07:49:04.174Z,16.55
2023-05-03T07:51:34.897Z,19.00
2023-05-03T07:54:01.721Z,11.45
2023-05-03T07:56:28.857Z,12.75
2023-05-03T07:59:05.146Z,14.60
2023-05-03T08:01:35.610Z,13.27
2023-05-03T08:04:02.368Z,14.98
2023-05-03T08:06:29.472Z,12.98
2023-05-03T08:08:56.270Z,13.45
2023-05-03T08:11:22.902Z,17.17
2023-05-03T08:13:49.678Z,14.13
2023-05-03T08:16:16.642Z,15.70
2023-05-03T08:18:43.358Z,15.90
2023-05-03T08:21:12.436Z,14.05
2023-05-03T08:23:39.614Z,15.88
2023-05-03T08:26:07.809Z,11.27
2023-05-03T08:28:34.545Z,16.33
2023-05-03T08:31:03.757Z,14.35
2023-05-03T08:33:30.957Z,15.85
2023-05-03T08:35:57.577Z,13.88
2023-05-03T08:38:24.634Z,13.00
2023-05-03T08:40:53.840Z,12.90
2023-05-03T08:43:24.160Z,13.07
2023-05-03T08:45:51.505Z,13.63
2023-05-03T08:48:18.944Z,18.00
2023-05-03T08:50:45.643Z,14.55
2023-05-03T08:53:12.263Z,14.23
2023-05-03T08:55:38.972Z,15.88
2023-05-03T08:58:10.783Z,16.58
2023-05-03T09:00:38.512Z,13.65
2023-05-03T09:03:05.400Z,15.80
2023-05-03T09:05:34.688Z,17.13
2023-05-03T09:08:07.476Z,15.55
2023-05-03T09:10:37.915Z,14.77
2023-05-03T09:13:04.646Z,15.15
2023-05-03T09:15:31.481Z,14.75
2023-05-03T09:18:18.425Z,12.82
2023-05-03T09:20:53.153Z,15.00
2023-05-03T09:23:31.336Z,16.27
2023-05-03T09:26:00.152Z,14.98
2023-05-03T09:28:27.465Z,19.52
2023-05-03T09:31:06.854Z,21.33
2023-05-03T09:33:34.151Z,18.73
2023-05-03T09:36:05.691Z,22.05
2023-05-03T09:38:35.002Z,17.73
2023-05-03T09:41:01.726Z,20.15
2023-05-03T09:43:28.456Z,16.05
2023-05-03T09:46:09.168Z,22.25
2023-05-03T09:48:37.567Z,25.70
2023-05-03T09:51:08.023Z,18.55
2023-05-03T09:53:36.366Z,25.98
2023-05-03T09:56:04.171Z,21.33
2023-05-03T09:58:34.879Z,23.67
2023-05-03T10:01:01.935Z,23.23
2023-05-03T10:03:32.181Z,32.35
2023-05-03T10:06:01.936Z,26.77
2023-05-03T10:08:35.057Z,21.05
2023-05-03T10:11:08.086Z,26.67
2023-05-03T10:13:36.217Z,32.58
2023-05-03T10:16:07.100Z,28.42
2023-05-03T10:18:37.998Z,28.02
2023-05-03T10:21:09.948Z,29.25
2023-05-03T10:23:36.579Z,27.73
2023-05-03T10:26:07.112Z,29.48
2023-05-03T10:28:34.246Z,27.55
2023-05-03T10:31:00.972Z,28.70
2023-05-03T10:33:37.516Z,27.25
2023-05-03T10:36:10.607Z,23.70
2023-05-03T10:38:38.069Z,27.45
2023-05-03T10:41:06.907Z,28.35
2023-05-03T10:43:33.510Z,27.63
2023-05-03T10:46:04.599Z,24.20
2023-05-03T10:48:32.361Z,24.17
2023-05-03T10:51:29.084Z,23.23
2023-05-03T10:53:55.912Z,28.85
2023-05-03T10:56:22.797Z,29.38
2023-05-03T10:58:50.865Z,30.58
2023-05-03T11:01:19.290Z,31.02
2023-05-03T11:04:07.836Z,30.98
2023-05-03T11:06:36.193Z,31.00
2023-05-03T11:09:06.537Z,30.60
2023-05-03T11:11:34.170Z,25.05
2023-05-03T11:14:00.914Z,24.73
2023-05-03T11:16:27.888Z,23.10
2023-05-03T11:18:55.316Z,24.20
2023-05-03T11:21:23.166Z,21.83
2023-05-03T11:23:49.939Z,21.38
2023-05-03T11:26:16.888Z,22.48
2023-05-03T11:28:44.383Z,18.80
2023-05-03T11:31:13.423Z,20.00
2023-05-03T11:33:41.095Z,20.27
2023-05-03T11:36:09.802Z,21.58
2023-05-03T11:38:39.451Z,20.83
2023-05-03T11:41:14.673Z,21.38
2023-05-03T11:43:45.548Z,23.33
2023-05-03T11:46:14.446Z,21.02
2023-05-03T11:48:44.348Z,17.42
2023-05-03T11:51:12.524Z,17.02
2023-05-03T11:53:41.066Z,17.05
2023-05-03T11:56:11.496Z,16.00
2023-05-03T11:58:53.389Z,14.52
2023-05-03T12:01:23.815Z,16.15
2023-05-03T12:03:55.580Z,14.45
2023-05-03T12:06:24.064Z,16.08
2023-05-03T12:08:51.530Z,14.02
2023-05-03T12:11:19.116Z,12.15
2023-05-03T12:13:58.465Z,15.43
2023-05-03T12:16:26.216Z,14.57
2023-05-03T12:18:56.498Z,15.50
2023-05-03T12:23:56.633Z,12.82
2023-05-03T12:26:25.624Z,12.77
2023-05-03T12:28:56.162Z,14.32
2023-05-03T12:31:23.916Z,10.57
2023-05-03T12:34:12.578Z,11.55
2023-05-03T12:36:38.557Z,14.13
2023-05-03T12:39:09.514Z,10.30
2023-05-03T12:44:09.894Z,14.70
2023-05-03T12:46:38.328Z,12.75
2023-05-03T12:49:08.196Z,11.90
2023-05-03T12:51:36.123Z,10.68
2023-05-03T12:54:03.931Z,12.55
2023-05-03T12:56:32.927Z,11.98
2023-05-03T12:59:23.160Z,9.95
2023-05-03T13:03:08.483Z,11.90
2023-05-03T13:04:56.598Z,11.57
2023-05-03T13:07:28.216Z,11.27
2023-05-03T13:12:27.404Z,11.38
2023-05-03T13:14:57.349Z,11.45
2023-05-03T13:17:24.108Z,8.98
2023-05-03T13:19:51.753Z,11.50
2023-05-03T13:22:18.739Z,10.48
2023-05-03T13:24:47.123Z,9.45
2023-05-03T13:27:14.070Z,9.82
2023-05-03T13:29:40.938Z,7.35
2023-05-03T13:32:08.562Z,8.45
2023-05-03T13:34:36.350Z,10.10
2023-05-03T13:37:04.613Z,10.93
2023-05-03T13:39:32.060Z,9.90
2023-05-03T13:41:59.050Z,7.60
2023-05-03T13:44:26.110Z,9.18
2023-05-03T13:46:53.650Z,10.00
2023-05-03T13:49:20.801Z,8.70
2023-05-03T13:51:47.689Z,9.35
2023-05-03T13:54:14.407Z,8.45
2023-05-03T13:56:42.917Z,7.45
2023-05-03T13:59:12.467Z,8.43
2023-05-03T14:01:39.909Z,8.68
2023-05-03T14:04:06.992Z,7.45
2023-05-03T14:06:34.134Z,8.55
2023-05-03T14:09:01.970Z,9.30
2023-05-03T14:11:30.438Z,8.95
2023-05-03T14:13:58.723Z,8.73
2023-05-03T14:16:40.159Z,8.27
2023-05-03T14:19:10.617Z,7.40
2023-05-03T14:21:37.908Z,8.30
2023-05-03T14:24:05.093Z,8.50
2023-05-03T14:26:33.986Z,8.57
2023-05-03T14:29:00.898Z,8.38
2023-05-03T14:31:27.604Z,8.75
2023-05-03T14:33:54.707Z,6.78
2023-05-03T14:36:21.359Z,9.20
2023-05-03T14:38:47.986Z,8.80
2023-05-03T14:41:14.617Z,10.00
2023-05-03T14:43:41.244Z,8.85
2023-05-03T14:46:09.872Z,8.18
2023-05-03T14:48:38.141Z,7.80
2023-05-03T14:51:05.482Z,7.32
2023-05-03T14:53:32.412Z,8.88
2023-05-03T14:55:59.500Z,7.47
2023-05-03T14:58:26.223Z,7.07
2023-05-03T15:00:53.185Z,9.20
2023-05-03T15:03:19.924Z,7.75
2023-05-03T15:05:50.466Z,6.35
2023-05-03T15:08:19.347Z,6.72
2023-05-03T15:10:46.628Z,5.50
2023-05-03T15:13:14.480Z,6.72
2023-05-03T15:15:43.596Z,5.82
2023-05-03T15:18:11.112Z,5.57
2023-05-03T15:20:38.027Z,5.03
2023-05-03T15:23:05.153Z,9.05
2023-05-03T15:25:32.460Z,6.68
2023-05-03T15:28:01.211Z,6.70
2023-05-03T15:30:30.382Z,7.15
2023-05-03T15:32:56.996Z,6.53
2023-05-03T15:35:23.647Z,7.07
2023-05-03T15:37:50.429Z,7.18
2023-05-03T15:40:18.726Z,7.28
2023-05-03T15:42:45.407Z,7.07
2023-05-03T15:45:13.319Z,6.93
2023-05-03T15:47:40.069Z,6.68
2023-05-03T15:50:07.850Z,8.40
2023-05-03T15:52:35.036Z,9.15
2023-05-03T15:55:01.873Z,7.70
2023-05-03T15:57:30.170Z,8.07
2023-05-03T15:59:57.493Z,7.20
2023-05-03T16:02:24.395Z,8.00
2023-05-03T16:04:51.217Z,6.80
2023-05-03T16:07:18.048Z,6.20
2023-05-03T16:09:44.951Z,6.22
2023-05-03T16:12:11.722Z,6.63
2023-05-03T16:14:38.403Z,7.85
2023-05-03T16:17:05.015Z,5.07
2023-05-03T16:19:32.119Z,5.63
2023-05-03T16:21:59.139Z,6.20
2023-05-03T16:24:25.832Z,6.93
2023-05-03T16:26:52.858Z,5.88
2023-05-03T16:29:19.967Z,6.75
2023-05-03T16:31:47.220Z,5.40
2023-05-03T16:34:14.305Z,6.20
2023-05-03T16:36:45.283Z,5.13
2023-05-03T16:39:12.828Z,4.78
2023-05-03T16:41:40.287Z,5.28
2023-05-03T16:44:08.293Z,6.22
2023-05-03T16:46:39.715Z,6.53
2023-05-03T16:49:06.615Z,7.32
2023-05-03T16:51:33.903Z,7.85
2023-05-03T16:54:02.960Z,7.63
2023-05-03T16:56:31.067Z,8.85
2023-05-03T16:58:59.283Z,7.60
2023-05-03T17:01:26.407Z,10.15
2023-05-03T17:03:53.382Z,8.88
2023-05-03T17:06:20.269Z,10.35
2023-05-03T17:08:46.961Z,9.57
2023-05-03T17:11:14.689Z,8.45
2023-05-03T17:13:42.014Z,7.00
2023-05-03T17:16:10.873Z,7.07
2023-05-03T17:18:40.395Z,8.25
2023-05-03T17:21:08.278Z,6.70
2023-05-03T17:23:37.878Z,8.48
2023-05-03T17:26:06.568Z,6.80
2023-05-03T17:28:33.234Z,6.65
2023-05-03T17:31:00.367Z,6.85
2023-05-03T17:33:27.368Z,7.78
2023-05-03T17:35:55.626Z,7.95
2023-05-03T17:38:23.360Z,9.57
2023-05-03T17:40:50.040Z,7.25
2023-05-03T17:43:17.788Z,7.53
2023-05-03T17:45:46.048Z,7.78
2023-05-03T17:48:13.219Z,6.63
2023-05-03T17:50:41.648Z,6.57
2023-05-03T17:53:09.323Z,8.23
2023-05-03T17:55:38.221Z,8.70
2023-05-03T17:58:06.475Z,6.90
2023-05-03T18:00:33.773Z,8.00
2023-05-03T18:03:01.185Z,6.93
2023-05-03T18:05:28.090Z,6.80
2023-05-03T18:07:54.760Z,7.07
2023-05-03T18:10:22.285Z,7.65
2023-05-03T18:12:49.214Z,8.35
2023-05-03T18:15:16.235Z,8.15
2023-05-03T18:17:43.471Z,7.72
2023-05-03T18:20:10.641Z,7.18
2023-05-03T18:22:37.841Z,8.77
2023-05-03T18:25:07.570Z,9.40
2023-05-03T18:27:36.865Z,8.73
2023-05-03T18:30:06.629Z,6.78
2023-05-03T18:32:34.454Z,7.82
2023-05-03T18:35:02.554Z,7.15
2023-05-03T18:37:29.540Z,7.53
2023-05-03T18:39:56.158Z,7.55
2023-05-03T18:42:23.036Z,8.02
2023-05-03T18:44:49.812Z,8.95
2023-05-03T18:47:20.783Z,8.10
2023-05-03T18:49:51.340Z,8.48
2023-05-03T18:52:21.621Z,6.65
2023-05-03T18:54:49.722Z,7.95
2023-05-03T18:57:16.546Z,8.25
2023-05-03T18:59:56.724Z,8.80
2023-05-03T19:02:30.576Z,7.78
2023-05-03T19:04:58.242Z,7.70
2023-05-03T19:07:25.088Z,9.48
2023-05-03T19:09:55.293Z,9.27
2023-05-03T19:12:22.751Z,10.45
2023-05-03T19:14:49.615Z,8.75
2023-05-03T19:17:16.785Z,8.55
2023-05-03T19:19:43.439Z,8.13
2023-05-03T19:22:10.178Z,7.88
2023-05-03T19:24:36.867Z,9.43
2023-05-03T19:27:04.724Z,9.85
2023-05-03T19:29:31.555Z,8.68
2023-05-03T19:31:58.226Z,7.90
2023-05-03T19:34:24.951Z,8.13
2023-05-03T19:36:51.534Z,7.30
2023-05-03T19:39:18.172Z,9.18
2023-05-03T19:41:44.818Z,9.07
2023-05-03T19:44:11.847Z,8.13
2023-05-03T19:46:38.652Z,10.63
2023-05-03T19:49:05.729Z,8.40
2023-05-03T19:51:33.241Z,10.13
2023-05-03T19:54:03.262Z,8.27
2023-05-03T19:56:29.974Z,8.82
2023-05-03T19:58:56.954Z,9.30
2023-05-03T20:01:23.914Z,9.10
2023-05-03T20:03:53.465Z,9.75
2023-05-03T20:06:20.740Z,10.13
2023-05-03T20:08:47.363Z,11.32
2023-05-03T20:11:14.103Z,11.23
2023-05-03T20:13:40.719Z,9.25
2023-05-03T20:16:08.340Z,9.15
2023-05-03T20:18:35.377Z,8.45
2023-05-03T20:21:03.700Z,11.23
2023-05-03T20:23:30.610Z,8.95
2023-05-03T20:25:57.312Z,10.05
2023-05-03T20:28:24.305Z,8.40
2023-05-03T20:30:51.278Z,12.98
2023-05-03T20:33:17.960Z,11.32
2023-05-03T20:35:44.682Z,14.55
2023-05-03T20:38:11.419Z,10.65
2023-05-03T20:40:38.417Z,12.18
2023-05-03T20:43:05.046Z,9.77
2023-05-03T20:45:31.887Z,9.05
2023-05-03T20:47:58.770Z,8.90
2023-05-03T20:50:25.468Z,9.82
2023-05-03T20:52:52.109Z,9.77
2023-05-03T20:55:18.927Z,11.18
2023-05-03T20:57:45.853Z,8.35
2023-05-03T21:00:13.304Z,11.55
2023-05-03T21:02:40.020Z,11.07
2023-05-03T21:05:07.136Z,11.57
2023-05-03T21:07:33.734Z,12.07
2023-05-03T21:10:00.574Z,11.00
2023-05-03T21:12:27.223Z,10.68
2023-05-03T21:14:53.864Z,10.80
2023-05-03T21:17:20.483Z,10.85
2023-05-03T21:19:47.125Z,9.85
2023-05-03T21:22:13.770Z,11.18
2023-05-03T21:24:40.457Z,9.77
2023-05-03T21:27:07.073Z,9.32
2023-05-03T21:29:33.726Z,11.35
2023-05-03T21:32:00.671Z,12.18
2023-05-03T21:34:27.352Z,10.43
2023-05-03T21:36:54.170Z,9.18
2023-05-03T21:39:21.583Z,8.68
2023-05-03T21:41:48.327Z,11.07
2023-05-03T21:44:14.985Z,9.75
2023-05-03T21:46:42.938Z,10.18
2023-05-03T21:49:09.840Z,8.05
2023-05-03T21:51:36.622Z,8.68
2023-05-03T21:54:03.366Z,8.85
2023-05-03T21:56:30.028Z,8.38
2023-05-03T21:58:56.709Z,11.48
2023-05-03T22:01:23.373Z,10.50
2023-05-03T22:03:50.345Z,11.15
2023-05-03T22:06:17.172Z,8.35
2023-05-03T22:08:43.948Z,10.40
2023-05-03T22:11:11.532Z,12.85
2023-05-03T22:13:50.284Z,11.55
2023-05-03T22:16:21.698Z,9.48
2023-05-03T22:18:48.943Z,9.20
2023-05-03T22:21:15.596Z,8.75
2023-05-03T22:23:42.793Z,7.85
2023-05-03T22:26:09.385Z,10.20
2023-05-03T22:28:35.996Z,9.77
2023-05-03T22:31:02.629Z,10.35
2023-05-03T22:33:29.280Z,8.95
2023-05-03T22:35:55.882Z,10.65
2023-05-03T22:38:22.544Z,10.98
2023-05-03T22:40:49.134Z,11.00
2023-05-03T22:43:15.981Z,11.70
2023-05-03T22:45:43.330Z,12.95
2023-05-03T22:48:10.070Z,11.32
2023-05-03T22:50:36.840Z,12.02
2023-05-03T22:53:03.775Z,11.88
2023-05-03T22:55:30.422Z,9.75
2023-05-03T22:57:57.061Z,9.20
2023-05-03T23:00:23.815Z,10.38
2023-05-03T23:02:50.503Z,10.07
2023-05-03T23:05:17.160Z,11.15
2023-05-03T23:07:43.842Z,9.23
2023-05-03T23:10:10.807Z,11.73
2023-05-03T23:12:37.803Z,8.65
2023-05-03T23:15:05.287Z,9.57
2023-05-03T23:17:31.890Z,9.80
2023-05-03T23:19:58.562Z,9.38
2023-05-03T23:22:25.167Z,9.95
2023-05-03T23:24:51.763Z,10.90
2023-05-03T23:27:18.332Z,11.98
2023-05-03T23:29:47.294Z,11.43
2023-05-03T23:32:14.356Z,9.43
2023-05-03T23:34:41.978Z,10.27
2023-05-03T23:37:08.564Z,10.30
2023-05-03T23:39:35.170Z,13.10
2023-05-03T23:42:01.828Z,13.15
2023-05-03T23:44:39.292Z,11.52
2023-05-03T23:47:13.892Z,11.18
2023-05-03T23:49:41.089Z,13.50
2023-05-03T23:52:09.857Z,9.18
2023-05-03T23:54:37.624Z,9.35
2023-05-03T23:57:04.212Z,10.65
2023-05-03T23:59:30.832Z,11.73
